Juana Diaz, PR (00795)

2:47 PM AST on September 22, 2014 (GMT -0400)
Manejo de Emergencias | Change Station
CLOSE
Current Station
Personal Weather Station
Location: Villalba, PR
Elevation: 45 ft
Nearby Weather Stations

Elev 45 ft 18.11 °N, 66.51 °W | Updated 14 minutes ago

Partly Cloudy
Partly Cloudy
87.0 °F
Feels Like 85 °F
N
4.0
Wind Variable Wind from WSW
Gusts 13.0 mph

Today
High -- | Low -- °F
--% Chance of Precip.
Yesterday
High -- | Low -- °F
Precip. -- in
6:14 AM 6:22 PM
Waning Crescent, 2% visible
Pressure 29.89 in
Visibility 10.0 miles
Clouds Few 3000 ft
Heat Index 85 °F
Dew Point 55 °F
Humidity 34%
Rainfall -999.00 in
Snow Depth Not available.
UV 11 out of 12
Pollen Not available.
Air Quality Not available.
Flu Activity Not available.
METAR TJPS 221650Z 16010KT 10SM FEW030 33/26 A2989

More Conditions Fewer Conditions

Pressure 29.89 in
Visibility 10.0 miles
Clouds Few 3000 ft
Heat Index 85 °F
Dew Point 55 °F
Humidity 34%
Rainfall -999.00 in
Snow Depth Not available.
UV 11 out of 12
Pollen Not available.
Air Quality Not available.
Flu Activity Not available.
METAR TJPS 221650Z 16010KT 10SM FEW030 33/26 A2989

More Conditions Fewer Conditions

10-Day Weather Forecast

Almanac

Astronomy

Sep. 22, 2014 Rise Set
Actual Time 6:14 AM AST 6:22 PM AST
Civil Twilight 5:53 AM AST 6:43 PM AST
Nautical Twilight 5:27 AM AST 7:09 PM AST
Astronomical Twilight 5:02 AM AST 7:34 PM AST
Moon 4:49 AM AST 5:21 PM AST
Length of Visible Light 12h 50m
Length of Day
12h 07m
Tomorrow will be 1m 1s shorter.
Waning Crescent, 2% of the Moon is Illuminated
Today
Waning Crescent
Sep 24
New
Oct 1
First Quarter
Oct 8
Full
Oct 15
Last Quarter

Community

WunderPhotos

Upload Photos

1,755,512 photos uploaded!

WunderBlogs® & News

Nearby

Snow Depth

Station Depth Elevation
No new snow has been reported.

Earthquake Activity

City Distance Mag. Time & Date
No recent earthquake activity has been reported nearby.
Minimum magnitude displayed is 2.5.

Coastal Water Temperatures

Place Temperature
Magueyes Islands, PR 86.0 °F
Yabucoa Harbor, PR 87.1 °F

Nearby Weather Stations